sensor_id;sensor_type;location;lat;lon;timestamp;P1;durP1;ratioP1;P2;durP2;ratioP2
61905;SDS011;47863;55.766;37.672;2024-01-27T00:01:31;20.23;;;9.88;;
61905;SDS011;47863;55.766;37.672;2024-01-27T00:03:57;19.92;;;8.60;;
61905;SDS011;47863;55.766;37.672;2024-01-27T00:06:23;21.65;;;8.73;;
61905;SDS011;47863;55.766;37.672;2024-01-27T00:08:49;18.50;;;8.63;;
61905;SDS011;47863;55.766;37.672;2024-01-27T00:11:14;19.67;;;8.73;;
61905;SDS011;47863;55.766;37.672;2024-01-27T00:13:40;18.55;;;8.02;;
61905;SDS011;47863;55.766;37.672;2024-01-27T00:16:05;21.33;;;9.05;;
61905;SDS011;47863;55.766;37.672;2024-01-27T00:18:31;24.92;;;9.00;;
61905;SDS011;47863;55.766;37.672;2024-01-27T00:20:57;20.35;;;9.70;;
61905;SDS011;47863;55.766;37.672;2024-01-27T00:23:23;13.80;;;7.30;;
61905;SDS011;47863;55.766;37.672;2024-01-27T00:25:48;24.20;;;10.07;;
61905;SDS011;47863;55.766;37.672;2024-01-27T00:28:14;26.75;;;10.35;;
61905;SDS011;47863;55.766;37.672;2024-01-27T00:30:39;14.30;;;7.13;;
61905;SDS011;47863;55.766;37.672;2024-01-27T00:33:05;18.48;;;8.38;;
61905;SDS011;47863;55.766;37.672;2024-01-27T00:35:31;20.48;;;8.90;;
61905;SDS011;47863;55.766;37.672;2024-01-27T00:37:57;17.83;;;9.35;;
61905;SDS011;47863;55.766;37.672;2024-01-27T00:40:23;20.15;;;9.05;;
61905;SDS011;47863;55.766;37.672;2024-01-27T00:42:49;19.65;;;8.65;;
61905;SDS011;47863;55.766;37.672;2024-01-27T00:45:14;16.90;;;7.63;;
61905;SDS011;47863;55.766;37.672;2024-01-27T00:47:40;18.95;;;8.63;;
61905;SDS011;47863;55.766;37.672;2024-01-27T00:50:05;22.80;;;9.07;;
61905;SDS011;47863;55.766;37.672;2024-01-27T00:52:33;16.52;;;8.02;;
61905;SDS011;47863;55.766;37.672;2024-01-27T00:55:00;15.85;;;7.43;;
61905;SDS011;47863;55.766;37.672;2024-01-27T00:57:26;25.02;;;10.00;;
61905;SDS011;47863;55.766;37.672;2024-01-27T00:59:51;26.02;;;10.88;;
61905;SDS011;47863;55.766;37.672;2024-01-27T01:02:17;19.27;;;7.63;;
61905;SDS011;47863;55.766;37.672;2024-01-27T01:04:42;17.80;;;8.45;;
61905;SDS011;47863;55.766;37.672;2024-01-27T01:07:08;17.08;;;7.90;;
61905;SDS011;47863;55.766;37.672;2024-01-27T01:09:34;21.27;;;8.43;;
61905;SDS011;47863;55.766;37.672;2024-01-27T01:11:59;22.88;;;9.60;;
61905;SDS011;47863;55.766;37.672;2024-01-27T01:14:25;22.77;;;8.77;;
61905;SDS011;47863;55.766;37.672;2024-01-27T01:16:51;19.83;;;8.70;;
61905;SDS011;47863;55.766;37.672;2024-01-27T01:19:16;22.52;;;9.20;;
61905;SDS011;47863;55.766;37.672;2024-01-27T01:21:42;20.67;;;8.77;;
61905;SDS011;47863;55.766;37.672;2024-01-27T01:24:08;14.75;;;7.28;;
61905;SDS011;47863;55.766;37.672;2024-01-27T01:26:34;18.25;;;9.15;;
61905;SDS011;47863;55.766;37.672;2024-01-27T01:29:00;21.92;;;9.23;;
61905;SDS011;47863;55.766;37.672;2024-01-27T01:31:25;16.00;;;8.05;;
61905;SDS011;47863;55.766;37.672;2024-01-27T01:33:51;18.38;;;8.27;;
61905;SDS011;47863;55.766;37.672;2024-01-27T01:36:16;14.05;;;6.65;;
61905;SDS011;47863;55.766;37.672;2024-01-27T01:38:42;20.98;;;9.68;;
61905;SDS011;47863;55.766;37.672;2024-01-27T01:41:08;19.60;;;8.50;;
61905;SDS011;47863;55.766;37.672;2024-01-27T01:43:33;16.65;;;8.00;;
61905;SDS011;47863;55.766;37.672;2024-01-27T01:45:59;19.55;;;9.18;;
61905;SDS011;47863;55.766;37.672;2024-01-27T01:48:25;19.52;;;7.70;;
61905;SDS011;47863;55.766;37.672;2024-01-27T01:50:51;16.15;;;6.78;;
61905;SDS011;47863;55.766;37.672;2024-01-27T01:53:17;16.17;;;7.38;;
61905;SDS011;47863;55.766;37.672;2024-01-27T01:55:43;16.20;;;7.10;;
61905;SDS011;47863;55.766;37.672;2024-01-27T01:58:09;15.80;;;7.32;;
61905;SDS011;47863;55.766;37.672;2024-01-27T02:00:35;16.85;;;8.85;;
61905;SDS011;47863;55.766;37.672;2024-01-27T02:03:00;21.25;;;8.65;;
61905;SDS011;47863;55.766;37.672;2024-01-27T02:05:26;17.20;;;7.78;;
61905;SDS011;47863;55.766;37.672;2024-01-27T02:07:52;23.80;;;9.65;;
61905;SDS011;47863;55.766;37.672;2024-01-27T02:10:21;19.27;;;8.82;;
61905;SDS011;47863;55.766;37.672;2024-01-27T02:12:47;17.33;;;8.05;;
61905;SDS011;47863;55.766;37.672;2024-01-27T02:15:13;14.27;;;7.35;;
61905;SDS011;47863;55.766;37.672;2024-01-27T02:17:39;12.98;;;6.63;;
61905;SDS011;47863;55.766;37.672;2024-01-27T02:20:05;18.48;;;8.73;;
61905;SDS011;47863;55.766;37.672;2024-01-27T02:22:35;20.63;;;8.90;;
61905;SDS011;47863;55.766;37.672;2024-01-27T02:25:01;17.08;;;8.15;;
61905;SDS011;47863;55.766;37.672;2024-01-27T02:27:29;15.50;;;6.88;;
61905;SDS011;47863;55.766;37.672;2024-01-27T02:29:55;14.75;;;6.60;;
61905;SDS011;47863;55.766;37.672;2024-01-27T02:32:20;15.65;;;7.40;;
61905;SDS011;47863;55.766;37.672;2024-01-27T02:34:46;20.90;;;8.85;;
61905;SDS011;47863;55.766;37.672;2024-01-27T02:37:13;13.10;;;6.05;;
61905;SDS011;47863;55.766;37.672;2024-01-27T02:39:39;16.23;;;7.00;;
61905;SDS011;47863;55.766;37.672;2024-01-27T02:42:05;18.42;;;8.25;;
61905;SDS011;47863;55.766;37.672;2024-01-27T02:44:31;20.95;;;8.73;;
61905;SDS011;47863;55.766;37.672;2024-01-27T02:46:57;12.70;;;6.82;;
61905;SDS011;47863;55.766;37.672;2024-01-27T02:49:23;16.77;;;6.82;;
61905;SDS011;47863;55.766;37.672;2024-01-27T02:51:48;16.63;;;7.50;;
61905;SDS011;47863;55.766;37.672;2024-01-27T02:54:14;15.23;;;6.53;;
61905;SDS011;47863;55.766;37.672;2024-01-27T02:56:40;14.40;;;7.35;;
61905;SDS011;47863;55.766;37.672;2024-01-27T02:59:06;11.15;;;5.75;;
61905;SDS011;47863;55.766;37.672;2024-01-27T03:01:31;15.60;;;7.18;;
61905;SDS011;47863;55.766;37.672;2024-01-27T03:03:57;11.48;;;5.57;;
61905;SDS011;47863;55.766;37.672;2024-01-27T03:06:22;14.65;;;7.50;;
61905;SDS011;47863;55.766;37.672;2024-01-27T03:08:48;11.43;;;5.00;;
61905;SDS011;47863;55.766;37.672;2024-01-27T03:11:14;14.95;;;6.53;;
61905;SDS011;47863;55.766;37.672;2024-01-27T03:13:40;13.20;;;5.30;;
61905;SDS011;47863;55.766;37.672;2024-01-27T03:16:10;13.32;;;6.47;;
61905;SDS011;47863;55.766;37.672;2024-01-27T03:18:36;16.70;;;7.20;;
61905;SDS011;47863;55.766;37.672;2024-01-27T03:21:02;11.93;;;5.65;;
61905;SDS011;47863;55.766;37.672;2024-01-27T03:23:28;12.13;;;5.90;;
61905;SDS011;47863;55.766;37.672;2024-01-27T03:25:54;13.63;;;6.25;;
61905;SDS011;47863;55.766;37.672;2024-01-27T03:28:20;11.85;;;5.47;;
61905;SDS011;47863;55.766;37.672;2024-01-27T03:30:46;13.68;;;6.22;;
61905;SDS011;47863;55.766;37.672;2024-01-27T03:33:12;12.07;;;5.50;;
61905;SDS011;47863;55.766;37.672;2024-01-27T03:35:39;10.20;;;5.00;;
61905;SDS011;47863;55.766;37.672;2024-01-27T03:38:08;12.43;;;5.80;;
61905;SDS011;47863;55.766;37.672;2024-01-27T03:40:33;12.82;;;5.82;;
61905;SDS011;47863;55.766;37.672;2024-01-27T03:42:59;13.73;;;5.28;;
61905;SDS011;47863;55.766;37.672;2024-01-27T03:45:25;16.17;;;5.97;;
61905;SDS011;47863;55.766;37.672;2024-01-27T03:47:50;12.77;;;6.03;;
61905;SDS011;47863;55.766;37.672;2024-01-27T03:50:16;12.18;;;6.25;;
61905;SDS011;47863;55.766;37.672;2024-01-27T03:52:41;11.73;;;5.78;;
61905;SDS011;47863;55.766;37.672;2024-01-27T03:55:07;11.70;;;5.53;;
61905;SDS011;47863;55.766;37.672;2024-01-27T03:57:33;13.63;;;5.75;;
61905;SDS011;47863;55.766;37.672;2024-01-27T03:59:58;10.85;;;5.00;;
61905;SDS011;47863;55.766;37.672;2024-01-27T04:02:24;12.43;;;5.35;;
61905;SDS011;47863;55.766;37.672;2024-01-27T04:04:49;9.18;;;4.53;;
61905;SDS011;47863;55.766;37.672;2024-01-27T04:07:15;12.23;;;4.97;;
61905;SDS011;47863;55.766;37.672;2024-01-27T04:09:41;11.27;;;4.82;;
61905;SDS011;47863;55.766;37.672;2024-01-27T04:12:06;10.68;;;4.97;;
61905;SDS011;47863;55.766;37.672;2024-01-27T04:14:32;16.63;;;7.28;;
61905;SDS011;47863;55.766;37.672;2024-01-27T04:16:58;12.23;;;5.78;;
61905;SDS011;47863;55.766;37.672;2024-01-27T04:19:24;10.98;;;4.97;;
61905;SDS011;47863;55.766;37.672;2024-01-27T04:21:49;10.27;;;4.60;;
61905;SDS011;47863;55.766;37.672;2024-01-27T04:24:15;11.93;;;5.05;;
61905;SDS011;47863;55.766;37.672;2024-01-27T04:26:40;13.23;;;5.85;;
61905;SDS011;47863;55.766;37.672;2024-01-27T04:29:06;9.30;;;4.85;;
61905;SDS011;47863;55.766;37.672;2024-01-27T04:31:31;10.70;;;4.53;;
61905;SDS011;47863;55.766;37.672;2024-01-27T04:33:57;15.95;;;6.10;;
61905;SDS011;47863;55.766;37.672;2024-01-27T04:36:29;10.05;;;5.25;;
61905;SDS011;47863;55.766;37.672;2024-01-27T04:38:55;12.52;;;6.32;;
61905;SDS011;47863;55.766;37.672;2024-01-27T04:41:21;14.88;;;5.93;;
61905;SDS011;47863;55.766;37.672;2024-01-27T04:43:47;14.70;;;6.82;;
61905;SDS011;47863;55.766;37.672;2024-01-27T04:46:13;12.02;;;6.13;;
61905;SDS011;47863;55.766;37.672;2024-01-27T04:48:38;15.38;;;6.28;;
61905;SDS011;47863;55.766;37.672;2024-01-27T04:51:04;12.55;;;6.30;;
61905;SDS011;47863;55.766;37.672;2024-01-27T04:53:30;11.75;;;5.72;;
61905;SDS011;47863;55.766;37.672;2024-01-27T04:55:55;11.10;;;5.40;;
61905;SDS011;47863;55.766;37.672;2024-01-27T04:58:21;11.02;;;5.80;;
61905;SDS011;47863;55.766;37.672;2024-01-27T05:00:46;11.73;;;5.82;;
61905;SDS011;47863;55.766;37.672;2024-01-27T05:03:12;14.48;;;6.57;;
61905;SDS011;47863;55.766;37.672;2024-01-27T05:05:42;14.77;;;6.43;;
61905;SDS011;47863;55.766;37.672;2024-01-27T05:08:08;12.82;;;5.82;;
61905;SDS011;47863;55.766;37.672;2024-01-27T05:10:35;11.45;;;4.70;;
61905;SDS011;47863;55.766;37.672;2024-01-27T05:13:01;11.30;;;4.70;;
61905;SDS011;47863;55.766;37.672;2024-01-27T05:15:27;14.18;;;5.75;;
61905;SDS011;47863;55.766;37.672;2024-01-27T05:17:52;16.85;;;7.20;;
61905;SDS011;47863;55.766;37.672;2024-01-27T05:20:18;11.70;;;5.88;;
61905;SDS011;47863;55.766;37.672;2024-01-27T05:22:44;13.70;;;6.72;;
61905;SDS011;47863;55.766;37.672;2024-01-27T05:25:10;16.77;;;7.00;;
61905;SDS011;47863;55.766;37.672;2024-01-27T05:27:37;11.00;;;5.80;;
61905;SDS011;47863;55.766;37.672;2024-01-27T05:30:04;10.10;;;5.28;;
61905;SDS011;47863;55.766;37.672;2024-01-27T05:32:31;9.50;;;5.13;;
61905;SDS011;47863;55.766;37.672;2024-01-27T05:34:56;10.10;;;4.72;;
61905;SDS011;47863;55.766;37.672;2024-01-27T05:37:22;15.50;;;5.80;;
61905;SDS011;47863;55.766;37.672;2024-01-27T05:39:47;14.55;;;6.32;;
61905;SDS011;47863;55.766;37.672;2024-01-27T05:42:13;11.30;;;5.38;;
61905;SDS011;47863;55.766;37.672;2024-01-27T05:44:39;9.25;;;4.70;;
61905;SDS011;47863;55.766;37.672;2024-01-27T05:47:06;11.43;;;4.90;;
61905;SDS011;47863;55.766;37.672;2024-01-27T05:49:32;17.50;;;7.18;;
61905;SDS011;47863;55.766;37.672;2024-01-27T05:51:57;8.25;;;4.45;;
61905;SDS011;47863;55.766;37.672;2024-01-27T05:54:24;12.95;;;6.15;;
61905;SDS011;47863;55.766;37.672;2024-01-27T05:56:50;15.27;;;6.90;;
61905;SDS011;47863;55.766;37.672;2024-01-27T05:59:15;15.38;;;6.30;;
61905;SDS011;47863;55.766;37.672;2024-01-27T06:01:41;11.93;;;5.43;;
61905;SDS011;47863;55.766;37.672;2024-01-27T06:04:08;11.07;;;4.72;;
61905;SDS011;47863;55.766;37.672;2024-01-27T06:06:34;11.07;;;5.78;;
61905;SDS011;47863;55.766;37.672;2024-01-27T06:09:06;14.65;;;5.97;;
61905;SDS011;47863;55.766;37.672;2024-01-27T06:11:36;14.50;;;5.93;;
61905;SDS011;47863;55.766;37.672;2024-01-27T06:14:02;13.35;;;5.10;;
61905;SDS011;47863;55.766;37.672;2024-01-27T06:16:28;10.40;;;4.93;;
61905;SDS011;47863;55.766;37.672;2024-01-27T06:18:54;13.68;;;6.07;;
61905;SDS011;47863;55.766;37.672;2024-01-27T06:21:20;9.75;;;4.45;;
61905;SDS011;47863;55.766;37.672;2024-01-27T06:23:46;11.30;;;5.47;;
61905;SDS011;47863;55.766;37.672;2024-01-27T06:26:12;13.52;;;5.38;;
61905;SDS011;47863;55.766;37.672;2024-01-27T06:28:39;13.82;;;5.68;;
61905;SDS011;47863;55.766;37.672;2024-01-27T06:31:05;14.90;;;6.43;;
61905;SDS011;47863;55.766;37.672;2024-01-27T06:33:32;15.65;;;6.68;;
61905;SDS011;47863;55.766;37.672;2024-01-27T06:35:59;13.82;;;5.90;;
61905;SDS011;47863;55.766;37.672;2024-01-27T06:38:26;12.23;;;5.20;;
61905;SDS011;47863;55.766;37.672;2024-01-27T06:40:52;10.35;;;4.80;;
61905;SDS011;47863;55.766;37.672;2024-01-27T06:43:17;14.10;;;6.20;;
61905;SDS011;47863;55.766;37.672;2024-01-27T06:45:43;15.00;;;5.93;;
61905;SDS011;47863;55.766;37.672;2024-01-27T06:48:09;13.40;;;6.28;;
61905;SDS011;47863;55.766;37.672;2024-01-27T06:50:34;13.20;;;5.80;;
61905;SDS011;47863;55.766;37.672;2024-01-27T06:53:00;16.05;;;6.47;;
61905;SDS011;47863;55.766;37.672;2024-01-27T06:55:26;10.90;;;4.57;;
61905;SDS011;47863;55.766;37.672;2024-01-27T06:57:52;15.30;;;6.20;;
61905;SDS011;47863;55.766;37.672;2024-01-27T07:00:18;13.43;;;6.85;;
61905;SDS011;47863;55.766;37.672;2024-01-27T07:02:45;17.85;;;6.82;;
61905;SDS011;47863;55.766;37.672;2024-01-27T07:05:10;17.35;;;7.10;;
61905;SDS011;47863;55.766;37.672;2024-01-27T07:07:37;16.13;;;7.15;;
61905;SDS011;47863;55.766;37.672;2024-01-27T07:10:03;13.40;;;5.75;;
61905;SDS011;47863;55.766;37.672;2024-01-27T07:12:29;16.58;;;7.28;;
61905;SDS011;47863;55.766;37.672;2024-01-27T07:14:55;16.65;;;6.70;;
61905;SDS011;47863;55.766;37.672;2024-01-27T07:17:20;18.80;;;7.18;;
61905;SDS011;47863;55.766;37.672;2024-01-27T07:19:46;14.13;;;5.97;;
61905;SDS011;47863;55.766;37.672;2024-01-27T07:22:12;16.05;;;6.05;;
61905;SDS011;47863;55.766;37.672;2024-01-27T07:24:38;17.75;;;7.50;;
61905;SDS011;47863;55.766;37.672;2024-01-27T07:27:04;18.15;;;7.45;;
61905;SDS011;47863;55.766;37.672;2024-01-27T07:29:29;16.08;;;6.93;;
61905;SDS011;47863;55.766;37.672;2024-01-27T07:31:55;13.52;;;5.75;;
61905;SDS011;47863;55.766;37.672;2024-01-27T07:34:21;14.95;;;6.22;;
61905;SDS011;47863;55.766;37.672;2024-01-27T07:36:47;14.63;;;6.15;;
61905;SDS011;47863;55.766;37.672;2024-01-27T07:39:15;16.23;;;6.80;;
61905;SDS011;47863;55.766;37.672;2024-01-27T07:41:41;17.50;;;7.20;;
61905;SDS011;47863;55.766;37.672;2024-01-27T07:44:08;12.00;;;5.47;;
61905;SDS011;47863;55.766;37.672;2024-01-27T07:46:38;14.93;;;6.75;;
61905;SDS011;47863;55.766;37.672;2024-01-27T07:49:07;13.60;;;6.05;;
61905;SDS011;47863;55.766;37.672;2024-01-27T07:51:34;11.50;;;5.78;;
61905;SDS011;47863;55.766;37.672;2024-01-27T07:53:59;16.40;;;6.68;;
61905;SDS011;47863;55.766;37.672;2024-01-27T07:56:26;13.93;;;5.78;;
61905;SDS011;47863;55.766;37.672;2024-01-27T07:58:52;14.77;;;6.53;;
61905;SDS011;47863;55.766;37.672;2024-01-27T08:01:18;17.10;;;6.82;;
61905;SDS011;47863;55.766;37.672;2024-01-27T08:03:44;12.27;;;6.13;;
61905;SDS011;47863;55.766;37.672;2024-01-27T08:06:14;9.63;;;4.35;;
61905;SDS011;47863;55.766;37.672;2024-01-27T08:08:53;10.05;;;5.22;;
61905;SDS011;47863;55.766;37.672;2024-01-27T08:11:19;15.27;;;7.75;;
61905;SDS011;47863;55.766;37.672;2024-01-27T08:13:47;15.77;;;6.72;;
61905;SDS011;47863;55.766;37.672;2024-01-27T08:16:13;18.95;;;6.70;;
61905;SDS011;47863;55.766;37.672;2024-01-27T08:18:39;16.38;;;7.18;;
61905;SDS011;47863;55.766;37.672;2024-01-27T08:21:07;12.70;;;6.35;;
61905;SDS011;47863;55.766;37.672;2024-01-27T08:23:34;14.52;;;6.78;;
61905;SDS011;47863;55.766;37.672;2024-01-27T08:25:59;15.63;;;6.57;;
61905;SDS011;47863;55.766;37.672;2024-01-27T08:30:56;12.80;;;6.50;;
61905;SDS011;47863;55.766;37.672;2024-01-27T08:33:24;14.52;;;5.72;;
61905;SDS011;47863;55.766;37.672;2024-01-27T08:35:50;17.05;;;7.38;;
61905;SDS011;47863;55.766;37.672;2024-01-27T08:38:17;17.75;;;7.40;;
61905;SDS011;47863;55.766;37.672;2024-01-27T08:40:42;13.27;;;5.85;;
61905;SDS011;47863;55.766;37.672;2024-01-27T08:43:08;11.82;;;5.82;;
61905;SDS011;47863;55.766;37.672;2024-01-27T08:45:36;17.95;;;7.60;;
61905;SDS011;47863;55.766;37.672;2024-01-27T08:48:02;20.08;;;7.45;;
61905;SDS011;47863;55.766;37.672;2024-01-27T08:50:28;16.58;;;7.50;;
61905;SDS011;47863;55.766;37.672;2024-01-27T08:52:54;22.23;;;8.45;;
61905;SDS011;47863;55.766;37.672;2024-01-27T08:55:20;38.78;;;14.50;;
61905;SDS011;47863;55.766;37.672;2024-01-27T08:57:49;17.40;;;7.60;;
61905;SDS011;47863;55.766;37.672;2024-01-27T09:00:15;22.80;;;9.07;;
61905;SDS011;47863;55.766;37.672;2024-01-27T09:02:42;18.50;;;7.30;;
61905;SDS011;47863;55.766;37.672;2024-01-27T09:05:08;19.17;;;8.00;;
61905;SDS011;47863;55.766;37.672;2024-01-27T09:07:34;16.80;;;6.65;;
61905;SDS011;47863;55.766;37.672;2024-01-27T09:09:59;19.77;;;8.55;;
61905;SDS011;47863;55.766;37.672;2024-01-27T09:12:25;15.65;;;6.25;;
61905;SDS011;47863;55.766;37.672;2024-01-27T09:14:51;21.05;;;8.48;;
61905;SDS011;47863;55.766;37.672;2024-01-27T09:17:16;19.42;;;7.55;;
61905;SDS011;47863;55.766;37.672;2024-01-27T09:19:42;16.70;;;6.32;;
61905;SDS011;47863;55.766;37.672;2024-01-27T09:22:08;17.42;;;7.28;;
61905;SDS011;47863;55.766;37.672;2024-01-27T09:24:33;16.63;;;7.05;;
61905;SDS011;47863;55.766;37.672;2024-01-27T09:26:59;22.77;;;7.68;;
61905;SDS011;47863;55.766;37.672;2024-01-27T09:29:25;19.65;;;8.48;;
61905;SDS011;47863;55.766;37.672;2024-01-27T09:31:50;15.75;;;6.90;;
61905;SDS011;47863;55.766;37.672;2024-01-27T09:34:16;16.10;;;6.93;;
61905;SDS011;47863;55.766;37.672;2024-01-27T09:36:41;13.63;;;5.85;;
61905;SDS011;47863;55.766;37.672;2024-01-27T09:39:07;15.82;;;6.80;;
61905;SDS011;47863;55.766;37.672;2024-01-27T09:41:33;17.08;;;6.93;;
61905;SDS011;47863;55.766;37.672;2024-01-27T09:43:59;12.48;;;6.68;;
61905;SDS011;47863;55.766;37.672;2024-01-27T09:46:28;17.80;;;8.50;;
61905;SDS011;47863;55.766;37.672;2024-01-27T09:48:54;16.38;;;6.88;;
61905;SDS011;47863;55.766;37.672;2024-01-27T09:51:20;14.68;;;6.78;;
61905;SDS011;47863;55.766;37.672;2024-01-27T09:53:46;13.70;;;6.22;;
61905;SDS011;47863;55.766;37.672;2024-01-27T09:56:12;15.40;;;6.68;;
61905;SDS011;47863;55.766;37.672;2024-01-27T09:58:43;15.75;;;7.05;;
61905;SDS011;47863;55.766;37.672;2024-01-27T10:01:12;18.48;;;7.32;;
61905;SDS011;47863;55.766;37.672;2024-01-27T10:03:40;11.13;;;5.05;;
61905;SDS011;47863;55.766;37.672;2024-01-27T10:06:09;20.40;;;7.60;;
61905;SDS011;47863;55.766;37.672;2024-01-27T10:08:36;21.95;;;9.55;;
61905;SDS011;47863;55.766;37.672;2024-01-27T10:11:08;19.30;;;8.25;;
61905;SDS011;47863;55.766;37.672;2024-01-27T10:13:37;18.85;;;7.18;;
61905;SDS011;47863;55.766;37.672;2024-01-27T10:16:06;13.93;;;5.50;;
61905;SDS011;47863;55.766;37.672;2024-01-27T10:18:32;17.73;;;7.10;;
61905;SDS011;47863;55.766;37.672;2024-01-27T10:20:59;14.32;;;6.75;;
61905;SDS011;47863;55.766;37.672;2024-01-27T10:23:26;15.18;;;6.47;;
61905;SDS011;47863;55.766;37.672;2024-01-27T10:25:52;15.38;;;7.10;;
61905;SDS011;47863;55.766;37.672;2024-01-27T10:28:18;19.05;;;7.13;;
61905;SDS011;47863;55.766;37.672;2024-01-27T10:30:44;15.95;;;6.82;;
61905;SDS011;47863;55.766;37.672;2024-01-27T10:33:11;13.75;;;5.35;;
61905;SDS011;47863;55.766;37.672;2024-01-27T10:35:40;16.70;;;7.20;;
61905;SDS011;47863;55.766;37.672;2024-01-27T10:38:07;18.42;;;7.70;;
61905;SDS011;47863;55.766;37.672;2024-01-27T10:40:34;16.02;;;7.53;;
61905;SDS011;47863;55.766;37.672;2024-01-27T10:43:02;21.23;;;9.73;;
61905;SDS011;47863;55.766;37.672;2024-01-27T10:48:06;18.30;;;9.13;;
61905;SDS011;47863;55.766;37.672;2024-01-27T10:50:37;17.58;;;8.07;;
61905;SDS011;47863;55.766;37.672;2024-01-27T10:53:05;17.65;;;8.48;;
61905;SDS011;47863;55.766;37.672;2024-01-27T10:55:35;22.58;;;9.13;;
61905;SDS011;47863;55.766;37.672;2024-01-27T10:58:02;18.80;;;8.23;;
61905;SDS011;47863;55.766;37.672;2024-01-27T11:00:29;20.08;;;9.63;;
61905;SDS011;47863;55.766;37.672;2024-01-27T11:02:58;19.83;;;9.98;;
61905;SDS011;47863;55.766;37.672;2024-01-27T11:05:24;23.48;;;10.10;;
61905;SDS011;47863;55.766;37.672;2024-01-27T11:07:53;22.75;;;8.65;;
61905;SDS011;47863;55.766;37.672;2024-01-27T11:10:19;19.90;;;9.30;;
61905;SDS011;47863;55.766;37.672;2024-01-27T11:12:45;23.27;;;10.88;;
61905;SDS011;47863;55.766;37.672;2024-01-27T11:15:12;15.48;;;7.10;;
61905;SDS011;47863;55.766;37.672;2024-01-27T11:17:41;18.20;;;8.40;;
61905;SDS011;47863;55.766;37.672;2024-01-27T11:20:08;18.77;;;9.10;;
61905;SDS011;47863;55.766;37.672;2024-01-27T11:22:36;21.70;;;9.23;;
61905;SDS011;47863;55.766;37.672;2024-01-27T11:27:38;23.75;;;10.75;;
61905;SDS011;47863;55.766;37.672;2024-01-27T11:32:57;19.92;;;9.48;;
61905;SDS011;47863;55.766;37.672;2024-01-27T11:35:32;25.42;;;10.32;;
61905;SDS011;47863;55.766;37.672;2024-01-27T11:37:58;19.83;;;9.23;;
61905;SDS011;47863;55.766;37.672;2024-01-27T11:40:23;16.55;;;7.97;;
61905;SDS011;47863;55.766;37.672;2024-01-27T11:45:54;23.85;;;10.05;;
61905;SDS011;47863;55.766;37.672;2024-01-27T11:48:26;23.02;;;10.13;;
61905;SDS011;47863;55.766;37.672;2024-01-27T11:51:27;28.27;;;10.57;;
61905;SDS011;47863;55.766;37.672;2024-01-27T11:53:45;15.55;;;7.60;;
61905;SDS011;47863;55.766;37.672;2024-01-27T11:56:12;23.02;;;9.23;;
61905;SDS011;47863;55.766;37.672;2024-01-27T11:58:38;18.23;;;8.25;;
61905;SDS011;47863;55.766;37.672;2024-01-27T12:01:10;24.40;;;9.95;;
61905;SDS011;47863;55.766;37.672;2024-01-27T12:03:36;21.10;;;8.48;;
61905;SDS011;47863;55.766;37.672;2024-01-27T12:06:02;20.02;;;8.93;;
61905;SDS011;47863;55.766;37.672;2024-01-27T12:08:28;19.83;;;8.63;;
61905;SDS011;47863;55.766;37.672;2024-01-27T12:10:53;16.98;;;7.90;;
61905;SDS011;47863;55.766;37.672;2024-01-27T12:13:19;19.75;;;8.88;;
61905;SDS011;47863;55.766;37.672;2024-01-27T12:15:45;19.25;;;9.20;;
61905;SDS011;47863;55.766;37.672;2024-01-27T12:18:11;25.45;;;10.27;;
61905;SDS011;47863;55.766;37.672;2024-01-27T12:20:37;14.70;;;7.38;;
61905;SDS011;47863;55.766;37.672;2024-01-27T12:23:04;19.95;;;8.85;;
61905;SDS011;47863;55.766;37.672;2024-01-27T12:25:32;15.10;;;7.15;;
61905;SDS011;47863;55.766;37.672;2024-01-27T12:28:02;20.85;;;8.65;;
61905;SDS011;47863;55.766;37.672;2024-01-27T12:30:28;21.25;;;8.77;;
61905;SDS011;47863;55.766;37.672;2024-01-27T12:32:54;30.00;;;12.38;;
61905;SDS011;47863;55.766;37.672;2024-01-27T12:35:19;19.42;;;9.63;;
61905;SDS011;47863;55.766;37.672;2024-01-27T12:37:45;21.05;;;9.20;;
61905;SDS011;47863;55.766;37.672;2024-01-27T12:40:18;23.50;;;9.30;;
61905;SDS011;47863;55.766;37.672;2024-01-27T12:42:48;20.50;;;8.45;;
61905;SDS011;47863;55.766;37.672;2024-01-27T12:45:14;17.15;;;9.10;;
61905;SDS011;47863;55.766;37.672;2024-01-27T12:47:39;22.13;;;9.88;;
61905;SDS011;47863;55.766;37.672;2024-01-27T12:50:06;24.52;;;11.27;;
61905;SDS011;47863;55.766;37.672;2024-01-27T12:52:32;19.73;;;9.18;;
61905;SDS011;47863;55.766;37.672;2024-01-27T12:54:58;22.90;;;9.18;;
61905;SDS011;47863;55.766;37.672;2024-01-27T12:57:23;15.25;;;7.72;;
61905;SDS011;47863;55.766;37.672;2024-01-27T12:59:49;24.55;;;10.65;;
61905;SDS011;47863;55.766;37.672;2024-01-27T13:02:15;23.23;;;9.80;;
61905;SDS011;47863;55.766;37.672;2024-01-27T13:04:41;24.88;;;11.00;;
61905;SDS011;47863;55.766;37.672;2024-01-27T13:07:07;20.50;;;9.73;;
61905;SDS011;47863;55.766;37.672;2024-01-27T13:09:34;19.90;;;8.30;;
61905;SDS011;47863;55.766;37.672;2024-01-27T13:12:01;28.50;;;10.80;;
61905;SDS011;47863;55.766;37.672;2024-01-27T13:14:27;25.50;;;10.95;;
61905;SDS011;47863;55.766;37.672;2024-01-27T13:16:52;25.98;;;9.63;;
61905;SDS011;47863;55.766;37.672;2024-01-27T13:19:20;25.08;;;11.88;;
61905;SDS011;47863;55.766;37.672;2024-01-27T13:21:45;26.83;;;12.32;;
61905;SDS011;47863;55.766;37.672;2024-01-27T13:24:11;25.25;;;11.35;;
61905;SDS011;47863;55.766;37.672;2024-01-27T13:26:37;24.35;;;10.52;;
61905;SDS011;47863;55.766;37.672;2024-01-27T13:29:06;26.00;;;12.45;;
61905;SDS011;47863;55.766;37.672;2024-01-27T13:31:33;25.42;;;10.43;;
61905;SDS011;47863;55.766;37.672;2024-01-27T13:34:00;27.77;;;11.05;;
61905;SDS011;47863;55.766;37.672;2024-01-27T13:36:26;22.48;;;10.38;;
61905;SDS011;47863;55.766;37.672;2024-01-27T13:38:52;24.27;;;10.52;;
61905;SDS011;47863;55.766;37.672;2024-01-27T13:41:18;26.10;;;10.50;;
61905;SDS011;47863;55.766;37.672;2024-01-27T13:43:44;21.75;;;9.20;;
61905;SDS011;47863;55.766;37.672;2024-01-27T13:46:10;18.77;;;7.78;;
61905;SDS011;47863;55.766;37.672;2024-01-27T13:48:36;18.52;;;8.38;;
61905;SDS011;47863;55.766;37.672;2024-01-27T13:51:02;27.50;;;11.10;;
61905;SDS011;47863;55.766;37.672;2024-01-27T13:53:28;22.65;;;8.98;;
61905;SDS011;47863;55.766;37.672;2024-01-27T13:55:54;29.95;;;12.93;;
61905;SDS011;47863;55.766;37.672;2024-01-27T13:58:20;20.27;;;9.32;;
61905;SDS011;47863;55.766;37.672;2024-01-27T14:00:47;24.90;;;11.50;;
61905;SDS011;47863;55.766;37.672;2024-01-27T14:03:13;25.08;;;10.93;;
61905;SDS011;47863;55.766;37.672;2024-01-27T14:05:38;26.67;;;10.98;;
61905;SDS011;47863;55.766;37.672;2024-01-27T14:08:04;22.75;;;9.48;;
61905;SDS011;47863;55.766;37.672;2024-01-27T14:10:32;19.90;;;9.25;;
61905;SDS011;47863;55.766;37.672;2024-01-27T14:12:58;27.90;;;11.73;;
61905;SDS011;47863;55.766;37.672;2024-01-27T14:15:24;23.88;;;11.55;;
61905;SDS011;47863;55.766;37.672;2024-01-27T14:17:49;28.08;;;11.93;;
61905;SDS011;47863;55.766;37.672;2024-01-27T14:20:15;24.48;;;10.55;;
61905;SDS011;47863;55.766;37.672;2024-01-27T14:22:41;21.83;;;10.60;;
61905;SDS011;47863;55.766;37.672;2024-01-27T14:25:07;25.17;;;11.63;;
61905;SDS011;47863;55.766;37.672;2024-01-27T14:27:33;22.42;;;10.48;;
61905;SDS011;47863;55.766;37.672;2024-01-27T14:30:00;22.25;;;8.90;;